Terminal Aerodrome Forecast
Issued by NWS Goodland, KS

Home | Current Version | Previous Version | Text Only | Print | Product List | Glossary On
Versions: 1 2 3 4 5 6 7 8 9 10 11 12 13 14
053
FTUS43 KGLD 200520
TAFGLD
TAF
KGLD 200520Z 2006/2106 24010KT P6SM FEW200
     FM201800 25012G19KT P6SM SCT270
     FM202200 28010KT P6SM FEW270
     FM210500 32008KT P6SM BKN090=

USA.gov is the U.S. government's official web portal to all federal, state and local government web resources and services.